createdAt,value
2023-03-16T00:01:05.517Z,101555.53
2023-03-16T00:03:35.417Z,101554.66
2023-03-16T00:06:03.266Z,101557.56
2023-03-16T00:08:31.116Z,101553.19
2023-03-16T00:10:59.523Z,101545.97
2023-03-16T00:13:27.533Z,101537.03
2023-03-16T00:15:57.826Z,101535.28
2023-03-16T00:18:28.187Z,101528.09
2023-03-16T00:20:59.780Z,101528.22
2023-03-16T00:23:28.153Z,101527.41
2023-03-16T00:25:56.800Z,101529.25
2023-03-16T00:28:24.789Z,101524.78
2023-03-16T00:30:52.893Z,101517.66
2023-03-16T00:33:20.831Z,101523.97
2023-03-16T00:35:50.174Z,101528.53
2023-03-16T00:38:21.773Z,101525.91
2023-03-16T00:40:51.269Z,101532.44
2023-03-16T00:43:19.079Z,101530.66
2023-03-16T00:45:47.620Z,101518.94
2023-03-16T00:48:16.499Z,101525.31
2023-03-16T00:50:44.348Z,101522.78
2023-03-16T00:53:13.140Z,101521.91
2023-03-16T00:55:42.610Z,101515.53
2023-03-16T00:58:14.872Z,101515.59
2023-03-16T01:00:43.012Z,101527.50
2023-03-16T01:03:10.862Z,101520.22
2023-03-16T01:05:41.785Z,101523.03
2023-03-16T01:08:10.209Z,101510.41
2023-03-16T01:10:37.993Z,101507.69
2023-03-16T01:13:07.574Z,101496.97
2023-03-16T01:15:35.833Z,101493.44
2023-03-16T01:18:03.688Z,101490.88
2023-03-16T01:20:33.542Z,101498.94
2023-03-16T01:23:02.282Z,101503.50
2023-03-16T01:25:30.107Z,101490.00
2023-03-16T01:27:58.081Z,101488.19
2023-03-16T01:30:28.346Z,101481.78
2023-03-16T01:32:56.406Z,101477.31
2023-03-16T01:35:24.296Z,101472.84
2023-03-16T01:37:52.142Z,101479.34
2023-03-16T01:40:24.274Z,101473.03
2023-03-16T01:43:05.545Z,101466.56
2023-03-16T01:46:21.963Z,101465.94
2023-03-16T01:49:06.300Z,101456.69
2023-03-16T01:51:39.302Z,101458.53
2023-03-16T01:54:10.708Z,101441.44
2023-03-16T01:56:43.277Z,101441.38
2023-03-16T01:59:17.295Z,101448.72
2023-03-16T02:01:49.494Z,101447.84
2023-03-16T02:04:33.849Z,101452.28
2023-03-16T02:07:04.690Z,101445.28
2023-03-16T02:09:33.154Z,101443.44
2023-03-16T02:12:01.964Z,101442.47
2023-03-16T02:14:31.708Z,101440.72
2023-03-16T02:17:01.131Z,101433.38
2023-03-16T02:19:43.238Z,101427.00
2023-03-16T02:22:11.715Z,101428.91
2023-03-16T02:24:39.719Z,101427.97
2023-03-16T02:27:10.429Z,101418.88
2023-03-16T02:30:09.810Z,101410.97
2023-03-16T02:32:47.984Z,101414.47
2023-03-16T02:35:15.903Z,101422.63
2023-03-16T02:37:43.766Z,101411.69
2023-03-16T02:40:22.408Z,101411.53
2023-03-16T02:42:57.418Z,101407.22
2023-03-16T02:45:33.410Z,101394.53
2023-03-16T02:48:06.574Z,101399.09
2023-03-16T02:50:34.506Z,101401.13
2023-03-16T02:53:02.319Z,101397.41
2023-03-16T02:55:30.345Z,101395.56
2023-03-16T02:57:58.638Z,101395.56
2023-03-16T03:00:30.038Z,101387.44
2023-03-16T03:02:58.338Z,101383.00
2023-03-16T03:05:26.230Z,101377.66
2023-03-16T03:07:54.128Z,101380.38
2023-03-16T03:10:22.170Z,101374.00
2023-03-16T03:12:50.321Z,101374.00
2023-03-16T03:15:19.368Z,101364.97
2023-03-16T03:17:58.993Z,101373.13
2023-03-16T03:20:29.754Z,101369.59
2023-03-16T03:22:57.919Z,101374.06
2023-03-16T03:25:25.986Z,101374.22
2023-03-16T03:27:55.756Z,101369.75
2023-03-16T03:30:26.432Z,101363.47
2023-03-16T03:32:54.680Z,101362.78
2023-03-16T03:35:24.349Z,101367.25
2023-03-16T03:37:52.550Z,101375.44
2023-03-16T03:40:21.517Z,101366.38
2023-03-16T03:42:55.802Z,101360.13
2023-03-16T03:45:24.830Z,101361.97
2023-03-16T03:47:52.815Z,101364.84
2023-03-16T03:50:22.254Z,101365.63
2023-03-16T03:53:02.178Z,101363.88
2023-03-16T03:55:33.090Z,101373.09
2023-03-16T03:58:01.969Z,101351.28
2023-03-16T04:00:30.276Z,101362.13
2023-03-16T04:02:58.394Z,101368.44
2023-03-16T04:05:34.004Z,101356.72
2023-03-16T04:08:04.279Z,101359.41
2023-03-16T04:10:32.546Z,101352.34
2023-03-16T04:13:01.400Z,101351.41
2023-03-16T04:15:33.959Z,101347.88
2023-03-16T04:18:24.004Z,101348.75
2023-03-16T04:20:53.174Z,101343.34
2023-03-16T04:23:24.904Z,101342.38
2023-03-16T04:25:54.841Z,101341.50
2023-03-16T04:28:26.305Z,101342.47
2023-03-16T04:30:54.994Z,101336.16
2023-03-16T04:33:32.282Z,101343.41
2023-03-16T04:36:02.429Z,101334.34
2023-03-16T04:38:33.741Z,101326.19
2023-03-16T04:41:03.068Z,101323.66
2023-03-16T04:43:35.660Z,101328.19
2023-03-16T04:46:16.541Z,101325.41
2023-03-16T04:48:44.714Z,101319.09
2023-03-16T04:51:12.643Z,101319.91
2023-03-16T04:53:47.231Z,101319.03
2023-03-16T04:56:23.852Z,101324.44
2023-03-16T04:58:57.099Z,101320.94
2023-03-16T05:01:28.110Z,101324.53
2023-03-16T05:03:59.829Z,101320.06
2023-03-16T05:06:29.047Z,101315.59
2023-03-16T05:09:01.911Z,101324.53
2023-03-16T05:11:30.843Z,101319.19
2023-03-16T05:14:02.375Z,101316.47
2023-03-16T05:16:32.738Z,101313.00
2023-03-16T05:19:01.290Z,101311.03
2023-03-16T05:21:34.148Z,101311.13
2023-03-16T05:24:07.416Z,101316.66
2023-03-16T05:26:35.692Z,101310.28
2023-03-16T05:29:06.038Z,101314.72
2023-03-16T05:31:34.216Z,101317.41
2023-03-16T05:34:05.400Z,101309.41
2023-03-16T05:36:35.843Z,101312.88
2023-03-16T05:39:10.313Z,101307.47
2023-03-16T05:41:42.946Z,101308.34
2023-03-16T05:44:16.885Z,101311.94
2023-03-16T05:47:23.108Z,101311.31
2023-03-16T05:49:55.991Z,101316.75
2023-03-16T05:52:30.875Z,101318.41
2023-03-16T05:55:03.479Z,101318.31
2023-03-16T05:57:31.370Z,101323.91
2023-03-16T06:00:01.820Z,101320.25
2023-03-16T06:02:40.208Z,101316.66
2023-03-16T06:05:08.790Z,101324.78
2023-03-16T06:07:40.028Z,101321.97
2023-03-16T06:10:11.588Z,101323.84
2023-03-16T06:12:39.824Z,101330.09
2023-03-16T06:15:09.239Z,101311.13
2023-03-16T06:17:38.669Z,101317.41
2023-03-16T06:20:10.443Z,101316.53
2023-03-16T06:22:41.196Z,101318.50
2023-03-16T06:25:12.667Z,101325.75
2023-03-16T06:27:42.646Z,101318.56
2023-03-16T06:30:15.141Z,101323.84
2023-03-16T06:32:44.383Z,101313.94
2023-03-16T06:35:13.259Z,101315.69
2023-03-16T06:37:46.347Z,101318.50
2023-03-16T06:40:31.283Z,101323.72
2023-03-16T06:42:59.148Z,101328.19
2023-03-16T06:45:27.252Z,101330.81
2023-03-16T06:47:56.881Z,101332.56
2023-03-16T06:50:24.768Z,101333.38
2023-03-16T06:52:52.619Z,101329.59
2023-03-16T06:55:20.981Z,101332.22
2023-03-16T06:57:51.836Z,101328.41
2023-03-16T07:00:20.604Z,101340.00
2023-03-16T07:02:48.409Z,101338.97
2023-03-16T07:05:16.506Z,101336.09
2023-03-16T07:07:45.502Z,101336.03
2023-03-16T07:10:15.839Z,101339.41
2023-03-16T07:12:44.171Z,101341.16
2023-03-16T07:15:14.333Z,101334.72
2023-03-16T07:17:42.528Z,101339.25
2023-03-16T07:20:12.799Z,101340.06
2023-03-16T07:22:41.662Z,101341.97
2023-03-16T07:25:12.383Z,101344.59
2023-03-16T07:27:46.651Z,101334.13
2023-03-16T07:30:20.575Z,101340.22
2023-03-16T07:32:50.548Z,101345.56
2023-03-16T07:35:21.680Z,101347.31
2023-03-16T07:37:49.816Z,101347.31
2023-03-16T07:40:18.248Z,101340.91
2023-03-16T07:42:46.068Z,101345.47
2023-03-16T07:45:28.689Z,101345.38
2023-03-16T07:47:58.891Z,101337.16
2023-03-16T07:50:38.361Z,101330.94
2023-03-16T07:53:06.652Z,101338.03
2023-03-16T07:55:39.057Z,101345.19
2023-03-16T07:58:10.363Z,101347.03
2023-03-16T08:00:42.488Z,101333.31
2023-03-16T08:03:10.597Z,101337.88
2023-03-16T08:05:39.317Z,101339.63
2023-03-16T08:08:12.834Z,101350.34
2023-03-16T08:10:41.986Z,101337.59
2023-03-16T08:13:22.491Z,101339.34
2023-03-16T08:15:58.412Z,101329.28
2023-03-16T08:18:37.990Z,101331.19
2023-03-16T08:21:07.065Z,101331.03
2023-03-16T08:23:36.088Z,101331.81
2023-03-16T08:26:08.698Z,101321.75
2023-03-16T08:28:37.286Z,101326.28
2023-03-16T08:31:12.226Z,101311.56
2023-03-16T08:33:52.458Z,101315.22
2023-03-16T08:36:24.234Z,101314.94
2023-03-16T08:39:06.501Z,101313.81
2023-03-16T08:41:40.684Z,101315.56
2023-03-16T08:44:15.621Z,101316.34
2023-03-16T08:46:45.007Z,101331.56
2023-03-16T08:49:14.399Z,101327.81
2023-03-16T08:51:44.880Z,101329.44
2023-03-16T08:54:12.795Z,101324.81
2023-03-16T08:56:40.632Z,101328.31
2023-03-16T08:59:16.829Z,101324.66
2023-03-16T09:01:53.240Z,101335.22
2023-03-16T09:04:22.029Z,101333.38
2023-03-16T09:07:05.849Z,101322.16
2023-03-16T09:09:36.490Z,101319.44
2023-03-16T09:12:05.892Z,101323.72
2023-03-16T09:14:34.358Z,101333.72
2023-03-16T09:17:04.258Z,101329.75
2023-03-16T09:19:50.075Z,101323.44
2023-03-16T09:22:19.623Z,101313.38
2023-03-16T09:24:47.589Z,101305.06
2023-03-16T09:27:16.447Z,101314.84
2023-03-16T09:29:45.370Z,101311.94
2023-03-16T09:32:15.387Z,101315.25
2023-03-16T09:34:43.320Z,101307.00
2023-03-16T09:37:11.438Z,101314.03
2023-03-16T09:39:39.594Z,101299.38
2023-03-16T09:42:20.832Z,101296.28
2023-03-16T09:45:00.412Z,101284.47
2023-03-16T09:47:34.413Z,101284.25
2023-03-16T09:50:06.337Z,101273.28
2023-03-16T09:52:42.313Z,101275.75
2023-03-16T09:56:05.419Z,101272.81
2023-03-16T09:59:47.069Z,101252.03
2023-03-16T10:03:28.329Z,101252.13
2023-03-16T10:06:19.259Z,101244.69
2023-03-16T10:09:04.508Z,101244.06
2023-03-16T10:11:35.661Z,101251.69
2023-03-16T10:14:34.743Z,101249.44
2023-03-16T10:17:17.858Z,101257.38
2023-03-16T10:19:55.284Z,101248.75
2023-03-16T10:22:26.404Z,101249.06
2023-03-16T10:25:03.562Z,101255.66
2023-03-16T10:27:34.474Z,101251.84
2023-03-16T10:30:04.303Z,101246.03
2023-03-16T10:32:35.675Z,101251.25
2023-03-16T10:35:08.196Z,101254.59
2023-03-16T10:37:39.174Z,101247.19
2023-03-16T10:40:12.368Z,101251.38
2023-03-16T10:42:41.591Z,101240.28
2023-03-16T10:45:24.265Z,101237.91
2023-03-16T10:47:52.402Z,101237.06
2023-03-16T10:50:25.146Z,101234.63
2023-03-16T10:52:58.244Z,101209.97
2023-03-16T10:55:31.092Z,101217.59
2023-03-16T10:57:59.822Z,101216.44
2023-03-16T11:00:29.956Z,101209.63
2023-03-16T11:03:00.009Z,101210.06
2023-03-16T11:05:31.770Z,101204.09
2023-03-16T11:08:03.729Z,101205.53
2023-03-16T11:10:38.097Z,101193.38
2023-03-16T11:13:14.655Z,101193.81
2023-03-16T11:15:48.785Z,101201.66
2023-03-16T11:18:33.405Z,101190.47
2023-03-16T11:21:07.836Z,101181.94
2023-03-16T11:23:42.242Z,101198.88
2023-03-16T11:26:19.711Z,101179.25
2023-03-16T11:28:51.673Z,101177.94
2023-03-16T11:31:27.525Z,101170.31
2023-03-16T11:33:57.501Z,101170.66
2023-03-16T11:36:37.615Z,101165.41
2023-03-16T11:39:15.847Z,101174.78
2023-03-16T11:41:54.639Z,101157.78
2023-03-16T11:44:32.892Z,101149.50
2023-03-16T11:47:09.107Z,101167.94
2023-03-16T11:49:57.091Z,101142.84
2023-03-16T11:52:35.692Z,101150.56
2023-03-16T11:55:22.528Z,101139.09
2023-03-16T11:57:58.516Z,101132.28
2023-03-16T12:00:39.449Z,101129.03
2023-03-16T12:03:36.915Z,101135.97
2023-03-16T12:06:23.561Z,101120.00
2023-03-16T12:09:10.505Z,101130.25
2023-03-16T12:11:45.545Z,101115.13
2023-03-16T12:14:21.190Z,101092.00
2023-03-16T12:16:55.920Z,101099.91
2023-03-16T12:19:31.727Z,101096.84
2023-03-16T12:22:08.046Z,101091.03
2023-03-16T12:24:42.431Z,101083.59
2023-03-16T12:27:17.848Z,101078.03
2023-03-16T12:30:06.244Z,101076.03
2023-03-16T12:32:46.659Z,101080.50
2023-03-16T12:35:29.518Z,101056.19
2023-03-16T12:38:06.232Z,101051.47
2023-03-16T12:40:41.888Z,101047.88
2023-03-16T12:43:30.182Z,101040.41
2023-03-16T12:46:02.183Z,101048.72
2023-03-16T12:48:33.897Z,101048.72
2023-03-16T12:51:03.963Z,101031.25
2023-03-16T12:53:55.236Z,101018.47
2023-03-16T12:56:30.109Z,101024.81
2023-03-16T12:59:01.248Z,101019.22
2023-03-16T13:01:31.244Z,101021.09
2023-03-16T13:04:04.606Z,101009.94
2023-03-16T13:06:36.442Z,101002.59
2023-03-16T13:09:07.232Z,101007.22
2023-03-16T13:11:45.676Z,100992.19
2023-03-16T13:14:30.906Z,100996.78
2023-03-16T13:17:22.947Z,100998.41
2023-03-16T13:20:01.595Z,100991.81
2023-03-16T13:22:31.166Z,100996.28
2023-03-16T13:25:15.507Z,100975.94
2023-03-16T13:27:47.008Z,100981.03
2023-03-16T13:30:21.397Z,100976.91
2023-03-16T13:32:55.546Z,100965.75
2023-03-16T13:35:28.165Z,100971.75
2023-03-16T13:37:56.174Z,100961.56
2023-03-16T13:40:27.467Z,100966.28
2023-03-16T13:42:58.108Z,100968.66
2023-03-16T13:45:32.681Z,100969.78
2023-03-16T13:48:02.136Z,100954.84
2023-03-16T13:50:33.584Z,100957.06
2023-03-16T13:53:04.675Z,100978.56
2023-03-16T13:55:34.657Z,100944.50
2023-03-16T13:58:03.925Z,100926.84
2023-03-16T14:00:36.985Z,100922.72
2023-03-16T14:03:16.129Z,100926.09
2023-03-16T14:05:44.441Z,100914.88
2023-03-16T14:08:17.887Z,100901.69
2023-03-16T14:10:46.709Z,100905.31
2023-03-16T14:13:27.565Z,100902.16
2023-03-16T14:15:59.726Z,100900.19
2023-03-16T14:18:37.254Z,100886.38
2023-03-16T14:21:09.230Z,100893.44
2023-03-16T14:23:40.472Z,100899.66
2023-03-16T14:26:13.920Z,100880.09
2023-03-16T14:28:43.521Z,100874.63
2023-03-16T14:31:14.280Z,100870.88
2023-03-16T14:33:46.006Z,100882.56
2023-03-16T14:36:15.956Z,100863.44
2023-03-16T14:38:45.096Z,100867.78
2023-03-16T14:41:24.110Z,100879.47
2023-03-16T14:43:55.514Z,100864.03
2023-03-16T14:46:29.582Z,100861.19
2023-03-16T14:49:03.629Z,100869.22
2023-03-16T14:51:32.708Z,100856.53
2023-03-16T14:54:00.599Z,100851.06
2023-03-16T14:56:35.104Z,100852.44
2023-03-16T14:59:02.902Z,100855.28
2023-03-16T15:01:32.345Z,100857.78
2023-03-16T15:04:00.400Z,100852.31
2023-03-16T15:06:31.135Z,100844.81
2023-03-16T15:08:59.181Z,100833.59
2023-03-16T15:11:31.712Z,100841.69
2023-03-16T15:14:14.767Z,100837.34
2023-03-16T15:16:46.675Z,100853.50
2023-03-16T15:19:14.711Z,100837.94
2023-03-16T15:21:43.868Z,100850.75
2023-03-16T15:24:12.920Z,100835.22
2023-03-16T15:26:40.797Z,100834.47
2023-03-16T15:29:12.777Z,100828.88
2023-03-16T15:31:41.130Z,100832.88
2023-03-16T15:34:10.463Z,100828.25
2023-03-16T15:36:38.720Z,100838.34
2023-03-16T15:39:08.385Z,100831.13
2023-03-16T15:41:47.055Z,100825.81
2023-03-16T15:44:16.007Z,100818.59
2023-03-16T15:46:43.897Z,100813.13
2023-03-16T15:49:13.871Z,100806.78
2023-03-16T15:51:41.964Z,100806.94
2023-03-16T15:54:12.161Z,100830.69
2023-03-16T15:56:53.308Z,100807.78
2023-03-16T15:59:24.099Z,100795.38
2023-03-16T16:01:52.761Z,100796.38
2023-03-16T16:04:24.264Z,100788.91
2023-03-16T16:06:55.060Z,100789.19
2023-03-16T16:09:23.377Z,100819.41
2023-03-16T16:11:51.530Z,100775.91
2023-03-16T16:14:23.833Z,100773.03
2023-03-16T16:16:51.905Z,100775.31
2023-03-16T16:19:19.800Z,100780.78
2023-03-16T16:21:49.085Z,100785.22
2023-03-16T16:24:18.206Z,100784.53
2023-03-16T16:26:53.264Z,100770.84
2023-03-16T16:29:23.921Z,100765.50
2023-03-16T16:31:52.666Z,100764.75
2023-03-16T16:34:24.242Z,100765.75
2023-03-16T16:36:53.967Z,100755.81
2023-03-16T16:39:23.315Z,100754.25
2023-03-16T16:41:54.493Z,100756.09
2023-03-16T16:44:24.635Z,100764.44
2023-03-16T16:46:53.661Z,100767.16
2023-03-16T16:49:24.755Z,100755.38
2023-03-16T16:51:54.974Z,100761.84
2023-03-16T16:54:24.077Z,100761.09
2023-03-16T16:56:54.521Z,100767.72
2023-03-16T16:59:24.924Z,100767.72
2023-03-16T17:01:53.991Z,100757.78
2023-03-16T17:04:24.636Z,100765.38
2023-03-16T17:06:58.773Z,100757.28
2023-03-16T17:09:28.661Z,100755.72
2023-03-16T17:11:59.499Z,100763.91
2023-03-16T17:14:28.726Z,100768.50
2023-03-16T17:16:58.054Z,100760.44
2023-03-16T17:19:28.188Z,100775.97
2023-03-16T17:21:59.173Z,100760.56
2023-03-16T17:24:28.633Z,100768.03
2023-03-16T17:26:58.705Z,100768.31
2023-03-16T17:29:29.909Z,100761.97
2023-03-16T17:31:57.954Z,100763.97
2023-03-16T17:34:28.137Z,100766.69
2023-03-16T17:36:57.693Z,100761.22
2023-03-16T17:39:27.463Z,100758.63
2023-03-16T17:41:58.907Z,100776.00
2023-03-16T17:44:27.887Z,100769.84
2023-03-16T17:46:55.657Z,100772.69
2023-03-16T17:49:28.175Z,100788.34
2023-03-16T17:51:57.552Z,100792.06
2023-03-16T17:54:25.446Z,100782.25
2023-03-16T17:56:54.188Z,100785.00
2023-03-16T17:59:23.392Z,100781.44
2023-03-16T18:01:52.196Z,100780.69
2023-03-16T18:04:22.263Z,100783.41
2023-03-16T18:06:51.140Z,100780.94
2023-03-16T18:09:21.458Z,100789.13
2023-03-16T18:11:51.597Z,100793.72
2023-03-16T18:14:26.362Z,100802.06
2023-03-16T18:16:55.230Z,100784.94
2023-03-16T18:19:25.304Z,100788.66
2023-03-16T18:21:55.645Z,100776.25
2023-03-16T18:24:26.698Z,100781.72
2023-03-16T18:26:55.298Z,100782.97
2023-03-16T18:29:24.029Z,100780.50
2023-03-16T18:31:55.068Z,100778.50
2023-03-16T18:34:25.218Z,100783.22
2023-03-16T18:36:54.943Z,100785.09
2023-03-16T18:39:24.344Z,100779.75
2023-03-16T18:41:52.827Z,100796.31
2023-03-16T18:44:22.453Z,100784.34
2023-03-16T18:46:51.800Z,100777.31
2023-03-16T18:49:22.831Z,100771.09
2023-03-16T18:51:53.305Z,100783.00
2023-03-16T18:54:23.421Z,100790.47
2023-03-16T18:56:53.777Z,100779.53
2023-03-16T18:59:21.689Z,100789.75
2023-03-16T19:01:49.543Z,100789.88
2023-03-16T19:04:22.539Z,100786.16
2023-03-16T19:06:52.067Z,100788.09
2023-03-16T19:09:22.210Z,100784.50
2023-03-16T19:11:50.576Z,100787.34
2023-03-16T19:14:22.323Z,100781.88
2023-03-16T19:16:50.732Z,100774.97
2023-03-16T19:19:21.320Z,100784.88
2023-03-16T19:21:50.501Z,100775.09
2023-03-16T19:24:24.103Z,100771.47
2023-03-16T19:26:52.633Z,100784.38
2023-03-16T19:29:28.375Z,100793.44
2023-03-16T19:31:57.919Z,100778.19
2023-03-16T19:34:26.536Z,100773.88
2023-03-16T19:36:54.438Z,100771.38
2023-03-16T19:39:22.325Z,100781.44
2023-03-16T19:41:55.797Z,100787.00
2023-03-16T19:44:27.533Z,100789.88
2023-03-16T19:46:56.152Z,100795.47
2023-03-16T19:49:25.906Z,100779.22
2023-03-16T19:51:55.845Z,100791.13
2023-03-16T19:54:25.048Z,100775.84
2023-03-16T19:56:54.283Z,100779.56
2023-03-16T19:59:30.285Z,100787.06
2023-03-16T20:09:53.851Z,100753.31
2023-03-16T20:12:23.764Z,100749.84
2023-03-16T20:14:52.455Z,100746.97
2023-03-16T20:17:23.409Z,100746.00
2023-03-16T20:19:53.035Z,100738.03
2023-03-16T20:22:23.461Z,100725.38
2023-03-16T20:24:54.404Z,100742.03
2023-03-16T20:27:24.188Z,100729.09
2023-03-16T20:29:52.899Z,100736.59
2023-03-16T20:32:22.932Z,100727.53
2023-03-16T20:34:51.500Z,100733.22
2023-03-16T20:37:24.799Z,100719.47
2023-03-16T20:39:54.975Z,100718.72
2023-03-16T20:42:26.283Z,100708.66
2023-03-16T20:44:54.135Z,100713.38
2023-03-16T20:47:23.884Z,100703.31
2023-03-16T20:49:57.574Z,100697.16
2023-03-16T20:52:30.718Z,100699.72
2023-03-16T20:55:00.264Z,100700.13
2023-03-16T20:57:30.224Z,100703.59
2023-03-16T20:59:59.907Z,100700.13
2023-03-16T21:02:30.102Z,100689.09
2023-03-16T21:04:59.790Z,100691.94
2023-03-16T21:07:27.769Z,100678.53
2023-03-16T21:09:55.672Z,100682.88
2023-03-16T21:12:28.627Z,100674.69
2023-03-16T21:14:56.873Z,100670.50
2023-03-16T21:17:34.409Z,100672.38
2023-03-16T21:20:02.296Z,100667.75
2023-03-16T21:22:31.596Z,100663.16
2023-03-16T21:24:59.942Z,100666.91
2023-03-16T21:27:31.249Z,100656.00
2023-03-16T21:30:01.645Z,100653.50
2023-03-16T21:32:30.872Z,100652.63
2023-03-16T21:35:01.958Z,100653.50
2023-03-16T21:37:30.273Z,100656.47
2023-03-16T21:40:00.168Z,100655.47
2023-03-16T21:42:30.379Z,100650.78
2023-03-16T21:44:58.111Z,100637.25
2023-03-16T21:47:29.631Z,100638.13
2023-03-16T21:49:59.370Z,100637.38
2023-03-16T21:52:30.205Z,100639.41
2023-03-16T21:54:59.864Z,100629.31
2023-03-16T21:57:27.623Z,100627.72
2023-03-16T21:59:56.866Z,100619.44
2023-03-16T22:02:27.864Z,100623.16
2023-03-16T22:04:57.595Z,100621.28
2023-03-16T22:07:26.577Z,100615.94
2023-03-16T22:09:54.447Z,100624.13
2023-03-16T22:12:22.232Z,100630.59
2023-03-16T22:14:49.982Z,100629.72
2023-03-16T22:17:22.762Z,100616.81
2023-03-16T22:19:50.677Z,100609.00
2023-03-16T22:22:18.745Z,100617.94
2023-03-16T22:24:47.448Z,100605.28
2023-03-16T22:27:18.734Z,100598.84
2023-03-16T22:29:46.648Z,100595.38
2023-03-16T22:32:22.460Z,100593.38
2023-03-16T22:34:53.358Z,100613.59
2023-03-16T22:37:24.124Z,100606.28
2023-03-16T22:39:53.076Z,100596.50
2023-03-16T22:42:27.469Z,100591.75
2023-03-16T22:44:55.622Z,100592.03
2023-03-16T22:47:27.146Z,100599.94
2023-03-16T22:49:55.605Z,100601.97
2023-03-16T22:52:28.146Z,100602.69
2023-03-16T22:54:56.811Z,100601.97
2023-03-16T22:57:24.619Z,100593.78
2023-03-16T22:59:53.116Z,100591.91
2023-03-16T23:02:26.133Z,100591.75
2023-03-16T23:04:54.030Z,100578.28
2023-03-16T23:07:21.819Z,100580.16
2023-03-16T23:09:49.636Z,100580.16
2023-03-16T23:12:22.068Z,100585.44
2023-03-16T23:14:49.879Z,100589.44
2023-03-16T23:17:19.055Z,100583.75
2023-03-16T23:19:48.646Z,100576.38
2023-03-16T23:22:16.965Z,100577.41
2023-03-16T23:24:44.849Z,100568.38
2023-03-16T23:27:18.916Z,100565.47
2023-03-16T23:29:47.162Z,100564.88
2023-03-16T23:32:16.818Z,100558.56
2023-03-16T23:34:44.626Z,100557.56
2023-03-16T23:37:13.877Z,100560.19
2023-03-16T23:39:41.672Z,100561.28
2023-03-16T23:42:10.080Z,100558.44
2023-03-16T23:44:37.952Z,100559.44
2023-03-16T23:47:05.962Z,100563.03
2023-03-16T23:49:37.950Z,100544.69
2023-03-16T23:52:06.338Z,100540.22
2023-03-16T23:54:35.467Z,100565.63
2023-03-16T23:57:03.454Z,100548.53
2023-03-16T23:59:31.234Z,100563.03
